Time;durP1;ratioP1;P1;durP2;ratioP2;P2;SDS_P1;SDS_P2;PMS_P1;PMS_P2;Temp;Humidity;BMP_temperature;BMP_pressure;BME280_temperature;BME280_humidity;BME280_pressure;Samples;Min_cycle;Max_cycle;Signal;HPM_P1;HPM_P2
2023/09/24 00:01:16;;;;;;;;;;;12.50;99.90;;;12.68;100.00;101120.13;4976061;28;19928;-82
2023/09/24 00:03:42;;;;;;;;;;;12.60;99.90;;;12.75;100.00;101140.13;4976032;28;19949;-82
2023/09/24 00:06:10;;;;;;;;;;;12.60;99.90;;;12.74;100.00;101143.91;4976246;28;19918;-83
2023/09/24 00:08:36;;;;;;;;;;;12.60;99.90;;;12.80;100.00;101156.72;4972177;28;19925;-83
2023/09/24 00:11:02;;;;;;;;;;;12.70;99.90;;;12.85;100.00;101175.22;4975627;28;19974;-82
2023/09/24 00:13:34;;;;;;;;;;;12.70;99.90;;;12.83;100.00;101176.50;4970623;28;19918;-82
2023/09/24 00:16:06;;;;;;;;;;;12.70;99.90;;;12.91;100.00;101195.41;4972781;28;19929;-82
2023/09/24 00:18:36;;;;;;;;;;;12.70;99.90;;;12.91;100.00;101195.41;4949101;28;19922;-82
2023/09/24 00:21:03;;;;;;;;;;;12.80;99.90;;;12.97;100.00;101207.38;4966245;28;19918;-83
2023/09/24 00:23:29;;;;;;;;;;;12.80;99.90;;;12.97;100.00;101208.22;4973780;28;20401;-82
2023/09/24 00:25:58;;;;;;;;;;;12.80;99.90;;;12.95;100.00;101199.38;4956971;28;19961;-83
2023/09/24 00:28:24;;;;;;;;;;;12.90;99.90;;;13.09;100.00;101220.16;4974635;28;19940;-82
2023/09/24 00:30:55;;;;;;;;;;;12.90;99.90;;;13.08;100.00;101221.22;4957925;28;19961;-83
2023/09/24 00:33:23;;;;;;;;;;;13.00;99.90;;;13.16;100.00;101227.50;4969725;28;20378;-83
2023/09/24 00:35:49;;;;;;;;;;;13.00;99.90;;;13.20;100.00;101231.47;4952505;28;19974;-84
2023/09/24 00:38:15;;;;;;;;;;;13.10;99.90;;;13.27;100.00;101240.53;4953059;28;19997;-83
2023/09/24 00:40:41;;;;;;;;;;;13.10;99.90;;;13.28;100.00;101244.94;4973301;28;19922;-82
2023/09/24 00:43:39;;;;;;;;;;;13.20;99.90;;;13.40;100.00;101252.44;4973547;28;19924;-83
2023/09/24 00:46:05;;;;;;;;;;;13.20;99.90;;;13.42;100.00;101256.66;4928232;28;20012;-83
2023/09/24 00:48:32;;;;;;;;;;;13.30;99.90;;;13.42;100.00;101262.13;4967158;28;19976;-82
2023/09/24 00:51:00;;;;;;;;;;;13.40;99.90;;;13.50;100.00;101269.25;4975024;28;19929;-83
2023/09/24 00:53:30;;;;;;;;;;;13.40;99.90;;;13.52;100.00;101272.63;4954969;28;19930;-83
2023/09/24 00:56:00;;;;;;;;;;;13.40;99.90;;;13.55;100.00;101277.69;4975321;28;20302;-83
2023/09/24 00:58:28;;;;;;;;;;;13.50;99.90;;;13.59;100.00;101286.28;4974414;28;19918;-84
2023/09/24 01:00:55;;;;;;;;;;;13.50;99.90;;;13.59;100.00;101278.91;4974822;28;19918;-83
2023/09/24 01:03:24;;;;;;;;;;;13.50;99.90;;;13.60;100.00;101285.22;4977176;28;19941;-83
2023/09/24 01:05:54;;;;;;;;;;;13.60;99.90;;;13.62;100.00;101283.94;4976791;28;19918;-84
2023/09/24 01:08:22;;;;;;;;;;;13.60;99.90;;;13.56;100.00;101279.34;4937879;28;19917;-82
2023/09/24 01:10:52;;;;;;;;;;;13.50;99.90;;;13.55;100.00;101285.91;4946428;28;19918;-84
2023/09/24 01:13:23;;;;;;;;;;;13.40;99.90;;;13.47;100.00;101269.69;4976629;28;19972;-83
2023/09/24 01:15:52;;;;;;;;;;;13.40;99.90;;;13.48;100.00;101276.88;4965264;28;19905;-82
2023/09/24 01:18:23;;;;;;;;;;;13.40;99.90;;;13.42;100.00;101266.75;4976563;28;19922;-83
2023/09/24 01:20:49;;;;;;;;;;;13.40;99.90;;;13.49;100.00;101281.28;4969960;28;20311;-83
2023/09/24 01:23:19;;;;;;;;;;;13.40;99.90;;;13.49;100.00;101267.56;4970070;28;19918;-84
2023/09/24 01:25:46;;;;;;;;;;;13.40;99.90;;;13.55;100.00;101283.16;4973467;28;19918;-82
2023/09/24 01:28:12;;;;;;;;;;;13.40;99.90;;;13.55;100.00;101282.31;4974530;28;19922;-83
2023/09/24 01:30:38;;;;;;;;;;;13.40;99.90;;;13.57;100.00;101292.00;4968184;28;19919;-83
2023/09/24 01:33:04;;;;;;;;;;;13.40;99.90;;;13.55;100.00;101293.28;4966140;28;19918;-84
2023/09/24 01:35:33;;;;;;;;;;;13.40;99.90;;;13.38;100.00;101293.75;4973385;28;19972;-84
2023/09/24 01:38:06;;;;;;;;;;;13.30;99.90;;;13.29;100.00;101279.50;4973081;28;20005;-83
2023/09/24 01:40:35;;;;;;;;;;;13.10;99.90;;;13.20;100.00;101280.78;4958637;28;19976;-83
2023/09/24 01:43:02;;;;;;;;;;;13.00;99.90;;;13.09;100.00;101261.25;4957515;28;19922;-84
2023/09/24 01:45:28;;;;;;;;;;;12.90;99.90;;;12.99;100.00;101257.31;4973203;28;19914;-84
2023/09/24 01:47:55;;;;;;;;;;;12.80;99.90;;;12.94;100.00;101244.25;4971031;28;19918;-83
2023/09/24 01:50:26;;;;;;;;;;;12.80;99.90;;;12.89;100.00;101220.28;4972529;28;19934;-84
2023/09/24 01:52:53;;;;;;;;;;;12.70;99.90;;;12.79;100.00;101206.22;4972096;28;19922;-83
2023/09/24 01:55:21;;;;;;;;;;;12.70;99.90;;;12.75;100.00;101218.66;4975690;28;20028;-82
2023/09/24 01:57:47;;;;;;;;;;;12.60;99.90;;;12.67;100.00;101211.53;4959963;28;19918;-83
2023/09/24 02:00:24;;;;;;;;;;;12.50;99.90;;;12.59;100.00;101182.50;4953657;28;20298;-83
2023/09/24 02:02:50;;;;;;;;;;;12.40;99.90;;;12.50;100.00;101184.66;4965103;28;19993;-82
2023/09/24 02:05:17;;;;;;;;;;;12.40;99.90;;;12.49;100.00;101171.19;4974685;28;20393;-83
2023/09/24 02:07:43;;;;;;;;;;;12.30;99.90;;;12.44;100.00;101166.34;4952423;28;20001;-83
2023/09/24 02:10:09;;;;;;;;;;;12.20;99.90;;;12.44;100.00;101154.56;4977116;28;19961;-83
2023/09/24 02:12:38;;;;;;;;;;;12.30;99.90;;;12.39;100.00;101143.44;4974688;28;20588;-83
2023/09/24 02:15:09;;;;;;;;;;;12.20;99.90;;;12.40;100.00;101147.88;4945105;28;19973;-83
2023/09/24 02:17:35;;;;;;;;;;;12.20;99.90;;;12.40;100.00;101142.41;4972360;28;20630;-83
2023/09/24 02:20:10;;;;;;;;;;;12.20;99.90;;;12.39;100.00;101137.97;4954257;28;19918;-83
2023/09/24 02:22:36;;;;;;;;;;;12.20;99.90;;;12.42;100.00;101137.53;4971606;28;20016;-83
2023/09/24 02:25:03;;;;;;;;;;;12.20;99.90;;;12.47;100.00;101145.94;4957281;28;19957;-83
2023/09/24 02:27:29;;;;;;;;;;;12.30;99.90;;;12.44;100.00;101128.03;4990427;28;19906;-83
2023/09/24 02:29:54;;;;;;;;;;;12.30;99.90;;;12.52;100.00;101136.03;4993180;28;19914;-82
2023/09/24 02:32:20;;;;;;;;;;;12.30;99.90;;;12.55;100.00;101144.84;4989827;28;19957;-82
2023/09/24 02:34:46;;;;;;;;;;;12.30;99.90;;;12.51;100.00;101134.34;4960549;28;19925;-82
2023/09/24 02:37:11;;;;;;;;;;;12.40;99.90;;;12.54;100.00;101132.22;4990577;28;19922;-82
2023/09/24 02:39:37;;;;;;;;;;;12.30;99.90;;;12.49;100.00;101131.00;4994517;28;19921;-83
2023/09/24 02:42:03;;;;;;;;;;;12.40;99.90;;;12.56;100.00;101130.09;4963525;28;19916;-82
2023/09/24 02:44:30;;;;;;;;;;;12.40;99.90;;;12.54;100.00;101121.28;4979791;28;19939;-82
2023/09/24 02:46:56;;;;;;;;;;;12.40;99.90;;;12.47;100.00;101130.38;4979467;28;19922;-82
2023/09/24 02:49:21;;;;;;;;;;;12.30;99.90;;;12.40;100.00;101135.00;4974108;28;20037;-82
2023/09/24 02:51:49;;;;;;;;;;;12.20;99.90;;;12.30;100.00;101131.91;4968801;28;19918;-82
2023/09/24 02:54:16;;;;;;;;;;;12.10;99.90;;;12.19;100.00;101133.41;4988604;28;20358;-83
2023/09/24 02:56:41;;;;;;;;;;;12.00;99.90;;;12.10;100.00;101138.28;4989025;28;20022;-83
2023/09/24 02:59:11;;;;;;;;;;;11.90;99.90;;;12.03;100.00;101146.50;4990581;28;19922;-83
2023/09/24 03:01:37;;;;;;;;;;;11.80;99.90;;;12.03;100.00;101143.75;4973671;28;19996;-83
2023/09/24 03:04:04;;;;;;;;;;;11.80;99.90;;;12.07;100.00;101135.97;4991499;28;19925;-82
2023/09/24 03:06:31;;;;;;;;;;;11.90;99.90;;;12.02;100.00;101133.06;4971183;28;19925;-83
2023/09/24 03:08:57;;;;;;;;;;;11.90;99.90;;;12.02;100.00;101139.34;4966186;28;19918;-83
2023/09/24 03:11:23;;;;;;;;;;;11.80;99.90;;;11.97;100.00;101141.03;4963378;28;19969;-83
2023/09/24 03:13:49;;;;;;;;;;;11.80;99.90;;;11.94;100.00;101132.22;4976464;28;20414;-83
2023/09/24 03:16:15;;;;;;;;;;;11.80;99.90;;;11.97;100.00;101125.44;4979090;28;20327;-83
2023/09/24 03:18:40;;;;;;;;;;;11.80;99.90;;;11.94;100.00;101121.28;4975013;28;19958;-83
2023/09/24 03:21:11;;;;;;;;;;;11.80;99.90;;;12.02;100.00;101117.47;4962571;28;19941;-84
2023/09/24 03:23:37;;;;;;;;;;;11.80;99.90;;;12.10;100.00;101101.91;4983864;28;20034;-83
2023/09/24 03:26:03;;;;;;;;;;;11.90;99.90;;;12.12;100.00;101102.53;4967238;28;19918;-83
2023/09/24 03:28:29;;;;;;;;;;;11.90;99.90;;;12.16;100.00;101096.38;4964396;28;20262;-83
2023/09/24 03:30:55;;;;;;;;;;;12.00;99.90;;;12.18;100.00;101086.06;4965745;28;19914;-83
2023/09/24 03:33:20;;;;;;;;;;;12.00;99.90;;;12.28;100.00;101099.28;4984121;28;19930;-83
2023/09/24 03:35:47;;;;;;;;;;;12.10;99.90;;;12.32;100.00;101099.69;4982905;28;19925;-83
2023/09/24 03:38:13;;;;;;;;;;;12.10;99.90;;;12.32;100.00;101092.31;4984833;28;19941;-83
2023/09/24 03:40:38;;;;;;;;;;;12.20;99.90;;;12.35;100.00;101080.09;4983059;28;20356;-82
2023/09/24 03:43:04;;;;;;;;;;;12.20;99.90;;;12.45;100.00;101101.53;4966157;28;19927;-84
2023/09/24 03:45:30;;;;;;;;;;;12.20;99.90;;;12.48;100.00;101104.69;4963223;28;19941;-83
2023/09/24 03:47:57;;;;;;;;;;;12.30;99.90;;;12.48;100.00;101118.38;4962728;28;19997;-83
2023/09/24 03:50:23;;;;;;;;;;;12.40;99.90;;;12.56;100.00;101130.09;4964623;28;19918;-83
2023/09/24 03:52:50;;;;;;;;;;;12.40;99.90;;;12.61;100.00;101149.44;4968076;28;19918;-84
2023/09/24 03:55:16;;;;;;;;;;;12.50;99.90;;;12.64;100.00;101162.69;4973876;28;20433;-83
2023/09/24 03:57:42;;;;;;;;;;;12.50;99.90;;;12.66;100.00;101169.63;4980599;28;19918;-83
2023/09/24 04:00:13;;;;;;;;;;;12.50;99.90;;;12.71;100.00;101190.03;4938296;29;19924;-83
2023/09/24 04:02:39;;;;;;;;;;;12.50;99.90;;;12.68;100.00;101196.78;4973391;28;19969;-83
2023/09/24 04:05:13;;;;;;;;;;;12.50;99.90;;;12.58;100.00;101221.03;4956936;28;19937;-83
2023/09/24 04:07:39;;;;;;;;;;;12.40;99.90;;;12.48;100.00;101233.28;4982959;28;20611;-83
2023/09/24 04:10:08;;;;;;;;;;;12.30;99.90;;;12.41;100.00;101234.38;4977773;28;19918;-83
2023/09/24 04:12:34;;;;;;;;;;;12.20;99.90;;;12.32;100.00;101256.47;4978349;28;20216;-83
2023/09/24 04:15:04;;;;;;;;;;;12.10;99.90;;;12.21;100.00;101252.50;4982163;28;19917;-83
2023/09/24 04:17:31;;;;;;;;;;;12.00;99.90;;;12.13;100.00;101260.09;4983298;28;19967;-83
2023/09/24 04:19:57;;;;;;;;;;;12.00;99.90;;;12.12;100.00;101253.78;4979779;28;19918;-83
2023/09/24 04:22:23;;;;;;;;;;;11.90;99.90;;;12.11;100.00;101252.09;4958570;28;19946;-84
2023/09/24 04:24:54;;;;;;;;;;;11.90;99.90;;;12.03;100.00;101239.47;4985436;28;19925;-83
2023/09/24 04:27:22;;;;;;;;;;;11.90;99.90;;;12.01;100.00;101241.56;4977049;28;20001;-83
2023/09/24 04:29:48;;;;;;;;;;;11.90;99.90;;;11.98;100.00;101243.88;4950822;28;19937;-83
2023/09/24 04:32:15;;;;;;;;;;;11.80;99.90;;;11.91;100.00;101252.09;4980948;28;20721;-83
2023/09/24 04:34:42;;;;;;;;;;;11.70;99.90;;;11.78;100.00;101253.75;4980630;28;19932;-84
2023/09/24 04:37:07;;;;;;;;;;;11.60;99.90;;;11.73;100.00;101259.00;4977802;28;19970;-83
2023/09/24 04:39:33;;;;;;;;;;;11.50;99.90;;;11.71;100.00;101263.03;4948013;29;19918;-83
2023/09/24 04:41:59;;;;;;;;;;;11.50;99.90;;;11.67;100.00;101248.94;4958634;28;19918;-83
2023/09/24 04:44:24;;;;;;;;;;;11.50;99.90;;;11.59;100.00;101240.94;4971764;28;19918;-82
2023/09/24 04:46:51;;;;;;;;;;;11.40;99.90;;;11.49;100.00;101242.16;4962383;28;19918;-82
2023/09/24 04:49:17;;;;;;;;;;;11.30;99.90;;;11.50;100.00;101234.84;4980039;28;20399;-82
2023/09/24 04:51:42;;;;;;;;;;;11.30;99.90;;;11.49;100.00;101224.94;4968996;28;19922;-87
2023/09/24 04:54:08;;;;;;;;;;;11.30;99.90;;;11.51;100.00;101222.84;4952821;28;20039;-86
2023/09/24 04:56:34;;;;;;;;;;;11.40;99.90;;;11.58;100.00;101210.03;4971451;28;20024;-80
2023/09/24 04:58:59;;;;;;;;;;;11.50;99.90;;;11.69;100.00;101210.47;4971428;28;20018;-80
2023/09/24 05:01:25;;;;;;;;;;;11.50;99.90;;;11.75;100.00;101199.50;4971444;28;20442;-79
2023/09/24 05:03:51;;;;;;;;;;;11.60;99.90;;;11.79;100.00;101205.41;4971607;28;19918;-84
2023/09/24 05:06:19;;;;;;;;;;;11.60;99.90;;;11.83;100.00;101203.09;4971840;28;20009;-83
2023/09/24 05:08:46;;;;;;;;;;;11.60;99.90;;;11.85;100.00;101203.72;4953901;28;20004;-84
2023/09/24 05:11:12;;;;;;;;;;;11.70;99.90;;;11.86;100.00;101210.88;4949648;28;19928;-82
2023/09/24 05:13:38;;;;;;;;;;;11.60;99.90;;;11.77;100.00;101210.25;4970786;28;20341;-83
2023/09/24 05:16:04;;;;;;;;;;;11.60;99.90;;;11.81;100.00;101216.97;4953815;28;20008;-82
2023/09/24 05:18:32;;;;;;;;;;;11.60;99.90;;;11.84;100.00;101213.81;4953627;28;19918;-82
2023/09/24 05:20:57;;;;;;;;;;;11.60;99.90;;;11.89;100.00;101211.28;4954200;28;19922;-82
2023/09/24 05:23:23;;;;;;;;;;;11.70;99.90;;;11.89;100.00;101208.53;4949680;28;19925;-84
2023/09/24 05:25:51;;;;;;;;;;;11.70;99.90;;;12.00;100.00;101217.16;4970750;28;19914;-83
2023/09/24 05:28:17;;;;;;;;;;;11.80;99.90;;;11.98;100.00;101222.84;4950078;28;19973;-83
2023/09/24 05:30:50;;;;;;;;;;;11.80;99.90;;;12.03;100.00;101231.25;4970244;28;19914;-84
2023/09/24 05:33:16;;;;;;;;;;;11.90;99.90;;;12.07;100.00;101220.75;4955605;28;19925;-86
2023/09/24 05:35:41;;;;;;;;;;;11.90;99.90;;;12.18;100.00;101225.56;4957425;28;20322;-85
2023/09/24 05:38:07;;;;;;;;;;;12.00;99.90;;;12.20;100.00;101220.75;4937482;29;20030;-89
2023/09/24 05:40:38;;;;;;;;;;;12.10;99.90;;;12.28;100.00;101219.66;4969109;28;20036;-86
2023/09/24 05:43:04;;;;;;;;;;;12.10;99.90;;;12.33;100.00;101216.28;4938471;28;19918;-88
2023/09/24 05:45:29;;;;;;;;;;;12.20;99.90;;;12.33;100.00;101217.13;4971357;28;20354;-84
2023/09/24 05:47:55;;;;;;;;;;;12.20;99.90;;;12.44;100.00;101229.28;4968397;28;19918;-81
2023/09/24 05:50:21;;;;;;;;;;;12.30;99.90;;;12.49;100.00;101237.72;4966835;28;20061;-81
2023/09/24 05:52:47;;;;;;;;;;;12.30;99.90;;;12.53;100.00;101240.84;4969943;28;20024;-81
2023/09/24 05:55:12;;;;;;;;;;;12.40;99.90;;;12.59;100.00;101244.63;4971084;28;20393;-81
2023/09/24 05:57:38;;;;;;;;;;;12.50;99.90;;;12.65;100.00;101262.91;4970794;28;20370;-81
2023/09/24 06:00:04;;;;;;;;;;;12.50;99.90;;;12.69;100.00;101266.88;4952845;28;20377;-82
2023/09/24 06:02:38;;;;;;;;;;;12.50;99.90;;;12.76;100.00;101267.72;4965924;28;19925;-81
2023/09/24 06:05:07;;;;;;;;;;;12.60;99.90;;;12.83;100.00;101264.94;4971566;28;19922;-81
2023/09/24 06:07:32;;;;;;;;;;;12.70;99.90;;;13.04;100.00;101276.66;4969175;28;20433;-82
2023/09/24 06:10:04;;;;;;;;;;;12.80;99.90;;;13.12;100.00;101305.72;4971290;28;20013;-81
2023/09/24 06:12:31;;;;;;;;;;;12.90;99.90;;;13.24;100.00;101317.66;4971065;28;19953;-81
2023/09/24 06:14:57;;;;;;;;;;;13.00;99.90;;;13.22;100.00;101338.94;4971138;28;19918;-81
2023/09/24 06:17:22;;;;;;;;;;;13.10;99.90;;;13.34;100.00;101381.06;4969517;28;20302;-82
2023/09/24 06:19:48;;;;;;;;;;;13.20;99.90;;;13.41;100.00;101402.09;4971157;28;19925;-84
2023/09/24 06:22:13;;;;;;;;;;;13.30;99.90;;;13.56;100.00;101442.97;4953959;28;19918;-81
2023/09/24 06:24:39;;;;;;;;;;;13.40;99.90;;;13.64;100.00;101454.53;4970832;28;19914;-82
2023/09/24 06:27:05;;;;;;;;;;;13.50;99.90;;;13.77;100.00;101472.84;4970960;28;19930;-82
2023/09/24 06:29:34;;;;;;;;;;;13.60;99.90;;;13.86;100.00;101500.84;4970636;28;19922;-82
2023/09/24 06:31:59;;;;;;;;;;;13.70;99.90;;;13.85;100.00;101534.84;4970048;28;19914;-83
2023/09/24 06:34:26;;;;;;;;;;;13.80;99.90;;;13.99;100.00;101570.44;4971493;28;20313;-83
2023/09/24 06:36:52;;;;;;;;;;;13.90;99.90;;;14.10;100.00;101603.50;4972838;28;19941;-83
2023/09/24 06:39:17;;;;;;;;;;;14.00;99.90;;;14.14;100.00;101612.16;4952950;28;19970;-84
2023/09/24 06:41:43;;;;;;;;;;;14.10;99.90;;;14.33;100.00;101637.00;4959628;28;19938;-87
2023/09/24 06:44:13;;;;;;;;;;;14.20;99.90;;;14.37;100.00;101660.22;4971369;28;19921;-86
2023/09/24 06:46:38;;;;;;;;;;;14.20;99.90;;;14.47;100.00;101677.03;4957130;28;20306;-87
2023/09/24 06:49:04;;;;;;;;;;;14.30;99.90;;;14.51;100.00;101683.78;4979868;28;19918;-83
2023/09/24 06:51:30;;;;;;;;;;;14.40;99.90;;;14.57;100.00;101692.19;4974412;28;19929;-84
2023/09/24 06:53:55;;;;;;;;;;;14.50;99.90;;;14.73;100.00;101721.13;4975618;28;19964;-94
2023/09/24 06:56:21;;;;;;;;;;;14.60;99.90;;;14.63;100.00;101729.78;4973251;28;20015;-90
2023/09/24 06:58:47;;;;;;;;;;;14.60;99.90;;;14.72;100.00;101731.25;4972247;28;19940;-90
2023/09/24 07:01:12;;;;;;;;;;;14.60;99.90;;;14.62;100.00;101731.69;4972395;28;19918;-88
2023/09/24 07:03:38;;;;;;;;;;;14.70;99.90;;;14.71;100.00;101754.28;4979451;28;20000;-87
2023/09/24 07:06:05;;;;;;;;;;;14.70;99.90;;;14.75;100.00;101758.28;4960044;28;19929;-88
2023/09/24 07:08:33;;;;;;;;;;;14.70;99.90;;;14.81;100.00;101762.91;4974654;28;19922;-90
2023/09/24 07:11:22;;;;;;;;;;;14.80;99.90;;;14.85;100.00;101762.47;4970027;28;20012;-91
2023/09/24 07:13:48;;;;;;;;;;;14.80;99.90;;;14.82;100.00;101752.78;4969392;28;19918;-93
2023/09/24 07:16:14;;;;;;;;;;;14.70;99.90;;;14.89;100.00;101758.25;4974364;28;20413;-91
2023/09/24 07:18:40;;;;;;;;;;;14.80;99.90;;;14.92;100.00;101774.28;4958982;28;19918;-93
2023/09/24 07:21:05;;;;;;;;;;;14.80;99.90;;;14.96;100.00;101764.53;4957351;28;19951;-91
2023/09/24 07:23:31;;;;;;;;;;;14.90;99.90;;;15.02;100.00;101780.13;4952525;29;19928;-92
2023/09/24 07:25:57;;;;;;;;;;;14.90;99.90;;;14.92;100.00;101790.75;4969804;28;19974;-92
2023/09/24 07:28:24;;;;;;;;;;;14.90;99.90;;;14.98;100.00;101791.78;4964930;28;20012;-91
2023/09/24 07:30:52;;;;;;;;;;;15.00;99.90;;;15.23;100.00;101797.38;4970174;28;19926;-92
2023/09/24 07:33:18;;;;;;;;;;;15.10;99.90;;;15.37;100.00;101796.22;4953835;28;19925;-94
2023/09/24 07:35:44;;;;;;;;;;;15.30;99.90;;;15.48;100.00;101815.84;4976513;28;19922;-91
2023/09/24 07:38:10;;;;;;;;;;;15.40;99.90;;;15.83;100.00;101809.88;4971562;28;19918;-88
2023/09/24 07:40:36;;;;;;;;;;;15.70;99.90;;;16.13;100.00;101817.47;4971773;28;19918;-87
2023/09/24 07:43:02;;;;;;;;;;;16.00;99.90;;;16.31;100.00;101829.59;4973050;28;19925;-86
2023/09/24 07:45:28;;;;;;;;;;;16.20;99.90;;;16.36;100.00;101825.09;4974032;28;20012;-86
2023/09/24 07:47:53;;;;;;;;;;;16.30;99.90;;;16.53;100.00;101850.13;4974417;28;19949;-87
2023/09/24 07:50:19;;;;;;;;;;;16.40;99.90;;;16.38;100.00;101841.38;4973344;28;19921;-85
2023/09/24 07:52:45;;;;;;;;;;;16.50;99.90;;;16.39;100.00;101845.81;4973993;28;19918;-88
2023/09/24 07:55:10;;;;;;;;;;;16.40;99.90;;;16.39;100.00;101849.44;4974144;28;20010;-87
2023/09/24 07:57:36;;;;;;;;;;;16.50;99.90;;;16.59;100.00;101864.94;4973433;28;19986;-87
2023/09/24 08:00:02;;;;;;;;;;;16.60;99.90;;;16.63;100.00;101866.16;4973772;28;20282;-89
2023/09/24 08:02:37;;;;;;;;;;;16.60;99.90;;;16.47;100.00;101864.81;4976432;28;19925;-90
2023/09/24 08:05:03;;;;;;;;;;;16.60;99.90;;;16.61;100.00;101864.69;4973587;28;19918;-89
2023/09/24 08:07:32;;;;;;;;;;;16.70;99.90;;;15.88;100.00;101859.59;4971305;28;19918;-87
2023/09/24 08:09:58;;;;;;;;;;;16.30;99.90;;;15.75;100.00;101852.25;4969446;28;19922;-90
2023/09/24 08:12:24;;;;;;;;;;;16.10;99.90;;;15.65;100.00;101858.25;4974737;28;19918;-89
2023/09/24 08:14:50;;;;;;;;;;;16.00;99.90;;;15.89;100.00;101855.78;4967251;28;19973;-88
2023/09/24 08:17:15;;;;;;;;;;;16.00;99.90;;;16.17;100.00;101859.16;4953537;28;19969;-89
2023/09/24 08:19:41;;;;;;;;;;;16.10;99.90;;;16.39;100.00;101868.72;4968645;28;19930;-90
2023/09/24 08:22:07;;;;;;;;;;;16.30;99.90;;;16.33;100.00;101864.13;4957918;28;19925;-89
2023/09/24 08:24:32;;;;;;;;;;;16.40;99.90;;;16.32;100.00;101872.59;4968784;28;20370;-91
2023/09/24 08:26:58;;;;;;;;;;;16.30;99.90;;;16.27;100.00;101869.69;4956379;28;20312;-86
2023/09/24 08:29:24;;;;;;;;;;;16.30;99.90;;;16.32;100.00;101878.94;4962205;28;20477;-85
2023/09/24 08:31:50;;;;;;;;;;;16.30;99.90;;;16.17;100.00;101873.75;4972584;28;20289;-85
2023/09/24 08:34:16;;;;;;;;;;;16.20;99.90;;;16.24;100.00;101868.19;4970902;28;19918;-86
2023/09/24 08:36:41;;;;;;;;;;;16.20;99.90;;;16.25;100.00;101872.63;4967306;28;19925;-86
2023/09/24 08:39:08;;;;;;;;;;;16.30;99.90;;;16.35;100.00;101867.47;4970746;28;19977;-86
2023/09/24 08:41:42;;;;;;;;;;;16.30;99.90;;;16.49;100.00;101870.94;4969575;28;19922;-84
2023/09/24 08:44:13;;;;;;;;;;;16.50;99.90;;;16.48;100.00;101871.16;4969553;28;19937;-84
2023/09/24 08:46:40;;;;;;;;;;;16.60;99.90;;;16.46;100.00;101871.41;4968704;28;19922;-81
2023/09/24 08:49:06;;;;;;;;;;;16.60;99.90;;;16.75;100.00;101879.16;4965734;28;19922;-82
2023/09/24 08:51:33;;;;;;;;;;;16.70;99.90;;;17.03;100.00;101864.88;4967628;28;20456;-86
2023/09/24 08:54:00;;;;;;;;;;;17.00;99.90;;;17.40;100.00;101872.28;4969386;28;20373;-84
2023/09/24 08:56:26;;;;;;;;;;;17.30;99.90;;;17.55;100.00;101869.09;4964496;28;19997;-84
2023/09/24 08:58:53;;;;;;;;;;;17.60;99.90;;;17.77;100.00;101863.88;4951909;28;20025;-84
2023/09/24 09:01:20;;;;;;;;;;;17.70;99.90;;;17.49;100.00;101883.78;4962525;28;19922;-84
2023/09/24 09:03:47;;;;;;;;;;;17.60;99.90;;;17.24;100.00;101877.34;4969127;28;19926;-83
2023/09/24 09:06:33;;;;;;;;;;;17.40;99.90;;;17.57;100.00;101875.22;4968707;28;19925;-85
2023/09/24 09:08:59;;;;;;;;;;;17.50;99.90;;;17.68;100.00;101870.81;4969773;28;20477;-86
2023/09/24 09:11:45;;;;;;;;;;;17.60;99.90;;;17.67;100.00;101869.13;4969821;28;19918;-85
2023/09/24 09:14:11;;;;;;;;;;;17.70;99.90;;;17.75;100.00;101867.94;4969573;28;19929;-85
2023/09/24 09:16:57;;;;;;;;;;;17.80;99.90;;;18.15;100.00;101864.56;4966383;28;19917;-82
2023/09/24 09:19:24;;;;;;;;;;;18.00;99.90;;;18.06;100.00;101863.25;4966598;28;20378;-86
2023/09/24 09:21:50;;;;;;;;;;;18.10;99.90;;;18.41;100.00;101865.19;4968864;28;19941;-87
2023/09/24 09:24:23;;;;;;;;;;;18.40;99.90;;;18.26;100.00;101872.03;4970856;28;19922;-86
2023/09/24 09:26:56;;;;;;;;;;;18.40;99.90;;;18.06;100.00;101866.03;4978780;28;20385;-87
2023/09/24 09:29:23;;;;;;;;;;;18.30;99.90;;;17.92;100.00;101868.13;4955489;28;19929;-85
2023/09/24 09:31:49;;;;;;;;;;;18.00;99.90;;;17.89;100.00;101874.94;4958583;28;19961;-86
2023/09/24 09:34:15;;;;;;;;;;;17.90;99.90;;;18.10;100.00;101867.22;4934020;28;19919;-86
2023/09/24 09:36:41;;;;;;;;;;;18.00;99.90;;;18.28;100.00;101865.41;4969360;28;19925;-86
2023/09/24 09:39:06;;;;;;;;;;;18.30;99.90;;;18.78;100.00;101859.38;4964332;28;19922;-89
2023/09/24 09:41:33;;;;;;;;;;;18.70;99.90;;;18.75;100.00;101856.28;4949771;28;20390;-85
2023/09/24 09:44:05;;;;;;;;;;;18.80;99.90;;;18.91;100.00;101860.22;4970427;28;20025;-88
2023/09/24 09:46:34;;;;;;;;;;;19.20;99.90;;;18.86;100.00;101863.69;4977692;28;19998;-88
2023/09/24 09:49:07;;;;;;;;;;;19.60;99.90;;;19.62;100.00;101854.44;4968602;28;19973;-94
2023/09/24 09:51:38;;;;;;;;;;;;;;;20.14;100.00;101863.66;4991045;28;20040;-92
2023/09/24 09:54:06;;;;;;;;;;;20.60;99.90;;;19.50;100.00;101854.53;4990637;28;20010;-94
2023/09/24 09:56:35;;;;;;;;;;;21.40;97.30;;;19.21;100.00;101861.97;4984180;28;19974;-93
2023/09/24 09:59:01;;;;;;;;;;;20.40;99.30;;;20.05;100.00;101851.34;4994803;28;19946;-93
2023/09/24 10:01:27;;;;;;;;;;;;;;;20.94;100.00;101852.38;4981611;28;20006;-88
2023/09/24 10:03:54;;;;;;;;;;;;;;;22.55;87.31;101852.00;4988630;28;19961;-92
2023/09/24 10:06:20;;;;;;;;;;;;;;;23.65;80.11;101850.44;4977391;28;20385;-95
2023/09/24 10:08:49;;;;;;;;;;;;;;;24.95;69.59;101853.94;4960606;28;19918;-94
2023/09/24 10:11:31;;;;;;;;;;;;;;;25.56;60.57;101835.19;4958407;28;19918;-89
2023/09/24 10:14:05;;;;;;;;;;;;;;;26.31;54.50;101837.94;4969332;28;19918;-88
2023/09/24 10:16:37;;;;;;;;;;;;;;;27.11;55.43;101850.44;4951966;28;19918;-88
2023/09/24 10:19:05;;;;;;;;;;;;;;;25.18;56.33;101845.97;4972272;28;19925;-92
2023/09/24 10:21:33;;;;;;;;;;;;;;;23.09;63.59;101861.16;4977409;28;19940;-88
2023/09/24 10:24:20;;;;;;;;;;;;;;;23.36;64.67;101864.84;4994357;28;19917;-85
2023/09/24 10:26:50;;;;;;;;;;;;;;;22.74;70.87;101868.19;4977551;28;20477;-85
2023/09/24 10:29:18;;;;;;;;;;;;;;;21.69;78.22;101868.50;4987505;28;20290;-89
2023/09/24 10:32:03;;;;;;;;;;;;;;;23.73;69.84;101865.78;4978258;28;19935;-88
2023/09/24 10:34:49;;;;;;;;;;;;;;;26.66;54.29;101855.44;4978114;28;20093;-88
2023/09/24 10:37:15;;;;;;;;;;;;;;;28.15;47.23;101843.25;4976565;28;19918;-90
2023/09/24 10:40:03;;;;;;;;;;;;;;;28.09;45.29;101842.50;4977188;28;19918;-91
2023/09/24 10:42:30;;;;;;;;;;;;;;;26.76;44.77;101838.50;4976358;28;19925;-91
2023/09/24 10:45:02;;;;;;;;;;;;;;;25.90;50.06;101855.88;4954928;28;19980;-85
2023/09/24 10:47:34;;;;;;;;;;;;;;;26.55;48.62;101858.38;4978784;28;20013;-85
2023/09/24 10:50:19;;;;;;;;;;;;;;;27.03;50.58;101867.06;4978765;28;20050;-89
2023/09/24 10:52:45;;;;;;;;;;;;;;;27.35;48.87;101863.56;4967342;28;19918;-91
2023/09/24 10:55:11;;;;;;;;;;;;;;;27.06;47.03;101852.47;4960087;28;19953;-89
2023/09/24 10:57:37;;;;;;;;;;;;;;;24.71;55.44;101860.13;4951400;29;19918;-86
2023/09/24 11:00:04;;;;;;;;;;;;;;;24.34;57.35;101858.53;4972737;28;19922;-89
2023/09/24 11:02:30;;;;;;;;;;;;;;;25.93;54.22;101852.50;4950002;29;19922;-89
2023/09/24 11:05:02;;;;;;;;;;;;;;;26.00;48.09;101833.44;4971275;28;20334;-87
2023/09/24 11:07:30;;;;;;;;;;;;;;;24.93;52.50;101839.41;4953041;29;19919;-83
2023/09/24 11:09:56;;;;;;;;;;;;;;;23.26;61.09;101846.19;4955248;28;20339;-86
2023/09/24 11:12:22;;;;;;;;;;;;;;;24.76;57.59;101846.19;4936396;29;19922;-84
2023/09/24 11:14:55;;;;;;;;;;;;;;;24.67;55.69;101842.28;4944861;29;19918;-87